Time;durP1;ratioP1;P1;durP2;ratioP2;P2;SDS_P1;SDS_P2;PMS_P1;PMS_P2;Temp;Humidity;BMP_temperature;BMP_pressure;BME280_temperature;BME280_humidity;BME280_pressure;Samples;Min_cycle;Max_cycle;Signal;HPM_P1;HPM_P2
2023/04/04 00:00:54;;;;;;;7.38;3.92;;;0.90;88.20;;;;;;7571630;19;20010;-78
2023/04/04 00:03:27;;;;;;;7.00;4.30;;;0.90;88.60;;;;;;7572304;19;20983;-80
2023/04/04 00:06:00;;;;;;;7.00;4.13;;;0.90;89.00;;;;;;7563980;19;20659;-77
2023/04/04 00:08:32;;;;;;;9.93;4.17;;;0.90;88.50;;;;;;7573273;19;20549;-76
2023/04/04 00:11:05;;;;;;;9.73;3.67;;;1.00;88.00;;;;;;7586244;19;20869;-78
2023/04/04 00:13:38;;;;;;;6.38;4.03;;;0.90;88.10;;;;;;7581473;19;20010;-78
2023/04/04 00:16:10;;;;;;;9.60;4.38;;;0.90;88.00;;;;;;7582533;19;20019;-78
2023/04/04 00:18:43;;;;;;;7.18;4.03;;;0.90;88.50;;;;;;7593134;19;20022;-78
2023/04/04 00:21:15;;;;;;;6.97;4.30;;;0.90;88.70;;;;;;7584896;19;20018;-81
2023/04/04 00:23:47;;;;;;;8.90;3.93;;;0.90;88.40;;;;;;7577338;19;20056;-80
2023/04/04 00:26:20;;;;;;;9.98;4.00;;;0.90;88.20;;;;;;7576247;19;20298;-78
2023/04/04 00:28:53;;;;;;;6.32;3.92;;;0.90;88.50;;;;;;7581893;19;20048;-80
2023/04/04 00:31:26;;;;;;;9.48;3.60;;;0.80;88.50;;;;;;7582592;19;20026;-80
2023/04/04 00:33:58;;;;;;;10.05;4.13;;;0.90;88.70;;;;;;7579648;19;20017;-77
2023/04/04 00:36:31;;;;;;;7.22;3.90;;;0.90;88.60;;;;;;7586708;19;20022;-82
2023/04/04 00:39:03;;;;;;;7.47;3.95;;;0.90;88.40;;;;;;7596182;19;20022;-81
2023/04/04 00:41:35;;;;;;;9.68;4.28;;;0.80;88.80;;;;;;7598163;19;20607;-79
2023/04/04 00:44:07;;;;;;;11.65;3.75;;;0.80;89.10;;;;;;7593256;19;20011;-77
2023/04/04 00:46:40;;;;;;;7.93;3.90;;;0.70;89.00;;;;;;7575664;19;20097;-80
2023/04/04 00:49:12;;;;;;;8.38;3.92;;;0.80;89.20;;;;;;7587755;19;20022;-77
2023/04/04 00:51:45;;;;;;;8.88;4.13;;;0.70;89.00;;;;;;7570433;19;20053;-80
2023/04/04 00:54:17;;;;;;;12.63;4.38;;;0.70;89.70;;;;;;7577870;19;20015;-78
2023/04/04 00:56:54;;;;;;;7.53;3.70;;;0.60;90.00;;;;;;7591663;19;20916;-81
2023/04/04 00:59:27;;;;;;;8.68;3.88;;;0.60;90.00;;;;;;7589264;19;20006;-79
2023/04/04 01:02:00;;;;;;;6.30;4.07;;;0.60;90.00;;;;;;7595304;19;20091;-78
2023/04/04 01:04:32;;;;;;;7.03;3.63;;;0.60;90.10;;;;;;7604861;19;20026;-80
2023/04/04 01:07:05;;;;;;;9.52;3.90;;;0.60;90.20;;;;;;7599825;19;21246;-79
2023/04/04 01:09:37;;;;;;;7.18;4.18;;;0.60;90.30;;;;;;7593981;19;20020;-80
2023/04/04 01:12:10;;;;;;;6.45;3.50;;;0.50;90.30;;;;;;7589900;19;20051;-81
2023/04/04 01:14:43;;;;;;;11.50;4.22;;;0.40;90.70;;;;;;7596341;19;20014;-81
2023/04/04 01:17:16;;;;;;;12.88;4.43;;;0.40;90.90;;;;;;7596228;19;20396;-80
2023/04/04 01:19:52;;;;;;;;;;;0.30;91.10;;;;;;7616284;19;20057;-82
2023/04/04 01:22:28;;;;;;;7.85;4.05;;;0.30;91.20;;;;;;7597930;19;20381;-78
2023/04/04 01:25:02;;;;;;;6.93;3.60;;;0.30;91.40;;;;;;7608004;19;20029;-81
2023/04/04 01:27:34;;;;;;;10.65;4.32;;;0.20;91.60;;;;;;7591399;19;20014;-80
2023/04/04 01:30:16;;;;;;;9.93;3.72;;;0.20;91.70;;;;;;7611725;19;20089;-79
2023/04/04 01:32:56;;;;;;;6.80;3.42;;;0.20;91.90;;;;;;7617010;19;20022;-81
2023/04/04 01:35:49;;;;;;;8.65;3.83;;;0.10;92.30;;;;;;7600552;19;20017;-79
2023/04/04 01:38:49;;;;;;;7.45;4.25;;;0.10;92.30;;;;;;7605387;19;20052;-81
2023/04/04 01:41:23;;;;;;;6.00;3.80;;;0.10;92.40;;;;;;7606211;19;20030;-80
2023/04/04 01:44:02;;;;;;;8.02;4.30;;;0.10;92.50;;;;;;7602147;19;20006;-81
2023/04/04 01:46:35;;;;;;;;;;;0.10;92.50;;;;;;7602123;19;20006;-82
2023/04/04 01:49:07;;;;;;;11.45;4.50;;;0.10;92.80;;;;;;7608917;19;19934;-80
2023/04/04 01:51:42;;;;;;;8.30;3.85;;;0.00;93.30;;;;;;7602589;19;20033;-78
2023/04/04 01:54:15;;;;;;;7.65;4.22;;;0.00;93.40;;;;;;7597900;19;20547;-78
2023/04/04 01:56:47;;;;;;;7.63;4.65;;;0.00;93.60;;;;;;7616418;19;20019;-81
2023/04/04 01:59:20;;;;;;;10.20;4.68;;;0.00;94.30;;;;;;7611292;19;20017;-80
2023/04/04 02:01:53;;;;;;;10.18;4.13;;;0.00;94.20;;;;;;7604610;19;20176;-80
2023/04/04 02:04:25;;;;;;;7.72;5.10;;;0.00;94.40;;;;;;7614752;19;20497;-80
2023/04/04 02:06:58;;;;;;;6.15;4.43;;;-0.10;95.10;;;;;;7601246;19;20037;-81
2023/04/04 02:09:31;;;;;;;8.52;4.43;;;-0.20;95.60;;;;;;7598430;19;20018;-80
2023/04/04 02:12:04;;;;;;;7.17;3.90;;;-0.20;95.40;;;;;;7604275;19;20018;-80
2023/04/04 02:14:36;;;;;;;12.83;4.43;;;-0.20;95.90;;;;;;7592841;19;20014;-79
2023/04/04 02:17:09;;;;;;;6.70;3.83;;;-0.20;95.80;;;;;;7612124;19;20101;-80
2023/04/04 02:19:42;;;;;;;7.57;4.28;;;-0.20;96.20;;;;;;7616400;19;20019;-78
2023/04/04 02:22:15;;;;;;;6.90;4.80;;;-0.20;96.40;;;;;;7619223;19;20051;-78
2023/04/04 02:24:47;;;;;;;7.17;4.17;;;-0.30;96.60;;;;;;7607722;19;20117;-78
2023/04/04 02:27:19;;;;;;;8.93;4.47;;;-0.20;96.50;;;;;;7591607;19;20014;-78
2023/04/04 02:29:52;;;;;;;7.47;4.60;;;-0.30;96.90;;;;;;7600176;19;20022;-79
2023/04/04 02:32:24;;;;;;;12.13;4.55;;;-0.30;96.90;;;;;;7596816;19;20097;-77
2023/04/04 02:34:57;;;;;;;7.03;4.35;;;-0.40;97.40;;;;;;7593482;19;20052;-78
2023/04/04 02:37:29;;;;;;;9.00;4.57;;;-0.40;97.90;;;;;;7598089;19;20029;-78
2023/04/04 02:40:03;;;;;;;10.38;4.38;;;-0.40;97.90;;;;;;7603717;19;20018;-77
2023/04/04 02:42:44;;;;;;;9.10;4.75;;;-0.40;98.70;;;;;;7604156;19;20010;-79
2023/04/04 02:45:17;;;;;;;10.82;4.15;;;-0.50;99.60;;;;;;7608447;19;20057;-76
2023/04/04 02:47:58;;;;;;;6.75;4.63;;;-0.50;99.30;;;;;;7606462;19;21403;-79
2023/04/04 02:50:40;;;;;;;12.35;4.63;;;-0.50;99.60;;;;;;7613972;19;20019;-78
2023/04/04 02:53:16;;;;;;;10.75;4.55;;;-0.50;99.50;;;;;;7609969;19;20502;-77
2023/04/04 02:55:50;;;;;;;7.72;4.68;;;-0.50;99.60;;;;;;7606694;19;20607;-78
2023/04/04 02:58:22;;;;;;;9.18;4.38;;;-0.50;99.90;;;;;;7619634;19;20017;-80
2023/04/04 03:00:55;;;;;;;8.13;4.60;;;-0.50;99.90;;;;;;7618894;19;20078;-80
2023/04/04 03:03:32;;;;;;;12.80;5.05;;;-0.50;99.90;;;;;;7616834;19;20066;-78
2023/04/04 03:06:04;;;;;;;8.48;4.78;;;-0.60;99.90;;;;;;7615559;19;20058;-78
2023/04/04 03:08:36;;;;;;;10.95;4.93;;;-0.60;99.90;;;;;;7612876;19;20006;-77
2023/04/04 03:11:09;;;;;;;8.38;4.40;;;-0.60;99.90;;;;;;7615713;19;20094;-78
2023/04/04 03:13:42;;;;;;;7.95;4.60;;;-0.60;99.90;;;;;;7625509;19;20649;-77
2023/04/04 03:16:16;;;;;;;8.07;4.60;;;-0.60;99.90;;;;;;7621940;19;20039;-78
2023/04/04 03:18:53;;;;;;;10.10;5.38;;;-0.60;99.90;;;;;;7621888;19;21322;-79
2023/04/04 03:21:26;;;;;;;11.18;5.47;;;-0.70;99.90;;;;;;7616076;19;20022;-77
2023/04/04 03:24:01;;;;;;;6.38;4.15;;;-0.70;99.90;;;;;;7623654;19;20948;-80
2023/04/04 03:26:33;;;;;;;9.00;4.40;;;-0.70;99.90;;;;;;7622428;19;20022;-77
2023/04/04 03:29:07;;;;;;;8.93;4.70;;;-0.80;99.90;;;;;;7618329;19;20514;-78
2023/04/04 03:31:40;;;;;;;11.63;4.65;;;-0.80;99.90;;;;;;7605835;19;20018;-79
2023/04/04 03:34:12;;;;;;;;;;;-0.80;99.90;;;;;;7611615;19;20334;-77
2023/04/04 03:36:45;;;;;;;10.98;4.90;;;-0.80;99.90;;;;;;7611189;19;19914;-80
2023/04/04 03:39:17;;;;;;;7.57;5.10;;;-0.80;99.90;;;;;;7607508;19;20030;-79
2023/04/04 03:41:51;;;;;;;8.30;4.72;;;-0.80;99.90;;;;;;7609675;19;20010;-79
2023/04/04 03:44:23;;;;;;;15.70;5.07;;;-0.90;99.90;;;;;;7623652;19;20018;-80
2023/04/04 03:46:55;;;;;;;10.93;4.63;;;-0.90;99.90;;;;;;7621558;19;20014;-80
2023/04/04 03:49:28;;;;;;;9.80;5.20;;;-0.90;99.90;;;;;;7601459;19;20097;-82
2023/04/04 03:52:02;;;;;;;12.05;5.40;;;-0.90;99.90;;;;;;7600078;19;20024;-81
2023/04/04 03:54:34;;;;;;;7.07;4.50;;;-1.00;99.90;;;;;;7603653;19;20049;-81
2023/04/04 03:57:07;;;;;;;10.43;4.85;;;-1.10;99.90;;;;;;7596206;19;20500;-79
2023/04/04 03:59:39;;;;;;;12.97;5.10;;;-1.00;99.90;;;;;;7599475;19;20022;-79
2023/04/04 04:02:11;;;;;;;9.45;4.70;;;-1.00;99.90;;;;;;7592911;19;20286;-81
2023/04/04 04:04:44;;;;;;;10.65;4.68;;;-1.10;99.90;;;;;;7596924;19;20162;-80
2023/04/04 04:07:16;;;;;;;9.27;4.50;;;-1.10;99.90;;;;;;7589651;19;20018;-79
2023/04/04 04:09:49;;;;;;;10.97;5.03;;;-1.10;99.90;;;;;;7594068;19;20029;-80
2023/04/04 04:12:21;;;;;;;10.32;4.90;;;-1.10;99.90;;;;;;7574597;19;20292;-81
2023/04/04 04:14:55;;;;;;;10.25;4.63;;;-1.10;99.90;;;;;;7578497;19;20017;-80
2023/04/04 04:17:28;;;;;;;12.38;4.78;;;-1.20;99.90;;;;;;7572333;19;20019;-77
2023/04/04 04:20:00;;;;;;;9.93;4.90;;;-1.20;99.90;;;;;;7616642;19;20027;-82
2023/04/04 04:22:48;;;;;;;10.98;5.07;;;-1.20;99.90;;;;;;7602425;19;20271;-81
2023/04/04 04:25:22;;;;;;;7.78;4.57;;;-1.20;99.90;;;;;;7592714;19;20024;-76
2023/04/04 04:28:04;;;;;;;8.02;5.15;;;-1.20;99.90;;;;;;7591165;19;20025;-81
2023/04/04 04:30:36;;;;;;;9.73;5.40;;;-1.30;99.90;;;;;;7580511;19;20635;-78
2023/04/04 04:33:09;;;;;;;12.85;5.03;;;-1.30;99.90;;;;;;7594620;19;20018;-80
2023/04/04 04:35:51;;;;;;;17.13;5.68;;;-1.30;99.90;;;;;;7597397;19;20071;-79
2023/04/04 04:38:24;;;;;;;14.10;5.60;;;-1.30;99.90;;;;;;7593795;19;20059;-79
2023/04/04 04:40:57;;;;;;;10.27;5.25;;;-1.30;99.90;;;;;;7591595;19;20018;-79
2023/04/04 04:43:36;;;;;;;11.20;5.40;;;-1.30;99.90;;;;;;7600537;19;20025;-78
2023/04/04 04:46:08;;;;;;;15.88;5.50;;;-1.40;99.90;;;;;;7620832;19;20006;-82
2023/04/04 04:48:41;;;;;;;10.25;5.72;;;-1.40;99.90;;;;;;7607500;19;20641;-78
2023/04/04 04:51:14;;;;;;;8.30;5.20;;;-1.40;99.90;;;;;;7603084;19;20062;-79
2023/04/04 04:53:51;;;;;;;9.32;5.25;;;-1.40;99.90;;;;;;7573985;19;20010;-80
2023/04/04 04:56:24;;;;;;;10.73;5.68;;;-1.30;99.90;;;;;;7564495;19;20496;-79
2023/04/04 04:59:00;;;;;;;11.07;5.38;;;-1.30;99.90;;;;;;7557431;19;20073;-80
2023/04/04 05:01:32;;;;;;;9.07;5.70;;;-1.30;99.90;;;;;;7577577;19;20010;-79
2023/04/04 05:04:04;;;;;;;12.93;5.47;;;-1.30;99.90;;;;;;7597748;19;20014;-77
2023/04/04 05:06:44;;;;;;;8.85;5.43;;;-1.30;99.90;;;;;;7580974;19;20013;-79
2023/04/04 05:09:17;;;;;;;9.65;5.82;;;-1.30;99.90;;;;;;7599427;19;20040;-81
2023/04/04 05:11:49;;;;;;;13.38;6.13;;;-1.40;99.90;;;;;;7568953;19;20301;-79
2023/04/04 05:14:26;;;;;;;13.52;5.85;;;-1.40;99.90;;;;;;7638524;19;20014;-79
2023/04/04 05:17:02;;;;;;;12.52;6.45;;;-1.40;99.90;;;;;;7561828;19;20891;-80
2023/04/04 05:19:36;;;;;;;10.50;5.47;;;-1.40;99.90;;;;;;7595434;19;20014;-77
2023/04/04 05:22:09;;;;;;;9.65;4.22;;;-1.40;99.90;;;;;;7590251;19;20010;-78
2023/04/04 05:24:48;;;;;;;10.43;6.20;;;-1.40;99.90;;;;;;7593473;19;20025;-79
2023/04/04 05:27:25;;;;;;;8.77;5.53;;;-1.30;99.90;;;;;;7592301;19;20022;-79
2023/04/04 05:30:01;;;;;;;11.48;5.43;;;-1.30;99.90;;;;;;7590351;19;20006;-78
2023/04/04 05:32:45;;;;;;;11.80;5.82;;;-1.30;99.90;;;;;;7592668;19;20014;-78
2023/04/04 05:35:25;;;;;;;9.98;5.82;;;-1.30;99.90;;;;;;7596873;19;20404;-80
2023/04/04 05:38:00;;;;;;;13.93;5.78;;;-1.30;99.90;;;;;;7592414;19;20716;-79
2023/04/04 05:40:32;;;;;;;13.13;6.07;;;-1.30;99.90;;;;;;7611206;19;20367;-79
2023/04/04 05:43:12;;;;;;;10.98;5.38;;;-1.40;99.90;;;;;;7606280;19;20020;-79
2023/04/04 05:45:56;;;;;;;13.55;5.28;;;-1.30;99.90;;;;;;7603944;19;20030;-79
2023/04/04 05:48:29;;;;;;;9.88;5.05;;;-1.10;99.90;;;;;;7619498;19;20027;-79
2023/04/04 05:51:01;;;;;;;11.02;5.60;;;-1.20;99.90;;;;;;7608765;19;20103;-79
2023/04/04 05:53:46;;;;;;;12.77;6.07;;;-1.10;99.90;;;;;;7599495;19;20022;-80
2023/04/04 05:56:24;;;;;;;13.10;5.88;;;-1.00;99.90;;;;;;7613878;19;21391;-79
2023/04/04 05:59:01;;;;;;;10.15;5.97;;;-1.00;99.90;;;;;;7608604;19;20128;-79
2023/04/04 06:01:37;;;;;;;7.22;5.40;;;-0.80;99.90;;;;;;7606885;19;20019;-80
2023/04/04 06:04:15;;;;;;;10.77;5.68;;;-0.80;99.90;;;;;;7614881;19;20018;-80
2023/04/04 06:06:48;;;;;;;;;;;-0.80;99.90;;;;;;7619796;19;20053;-80
2023/04/04 06:09:21;;;;;;;11.00;6.15;;;-0.70;99.90;;;;;;7602776;19;19919;-78
2023/04/04 06:11:53;;;;;;;9.70;6.28;;;-0.60;99.90;;;;;;7601938;19;20022;-79
2023/04/04 06:14:26;;;;;;;12.35;6.15;;;-0.60;99.90;;;;;;7591222;19;20016;-79
2023/04/04 06:16:59;;;;;;;13.23;5.82;;;-0.50;99.90;;;;;;7592064;19;20050;-79
2023/04/04 06:19:31;;;;;;;12.65;6.53;;;-0.40;99.90;;;;;;7603293;19;20048;-76
2023/04/04 06:22:04;;;;;;;9.23;5.53;;;-0.20;99.90;;;;;;7603997;19;20974;-78
2023/04/04 06:24:39;;;;;;;14.38;6.00;;;-0.10;99.90;;;;;;7606265;19;20501;-78
2023/04/04 06:27:12;;;;;;;16.48;5.10;;;0.00;99.90;;;;;;7592002;19;20010;-76
2023/04/04 06:29:44;;;;;;;14.32;6.03;;;0.10;99.90;;;;;;7593547;19;20053;-79
2023/04/04 06:32:21;;;;;;;11.20;5.57;;;0.10;99.50;;;;;;7580842;19;20044;-78
2023/04/04 06:34:53;;;;;;;10.73;5.32;;;0.20;99.20;;;;;;7585687;19;20810;-78
2023/04/04 06:37:39;;;;;;;12.88;6.57;;;0.20;98.50;;;;;;7583726;19;20555;-77
2023/04/04 06:40:19;;;;;;;16.20;6.55;;;0.30;97.20;;;;;;7594469;19;20029;-75
2023/04/04 06:42:53;;;;;;;10.27;5.30;;;0.40;96.20;;;;;;7596009;19;20026;-78
2023/04/04 06:45:28;;;;;;;10.80;5.75;;;0.40;95.90;;;;;;7594370;19;20030;-79
2023/04/04 06:48:01;;;;;;;13.00;6.00;;;0.50;96.60;;;;;;7592428;19;20524;-77
2023/04/04 06:50:33;;;;;;;9.35;5.90;;;0.70;96.20;;;;;;7586298;19;20275;-76
2023/04/04 06:53:08;;;;;;;14.80;4.95;;;0.90;94.80;;;;;;7605799;19;20014;-76
2023/04/04 06:55:40;;;;;;;8.27;5.00;;;0.90;92.80;;;;;;7585542;19;20019;-78
2023/04/04 06:58:12;;;;;;;9.20;5.65;;;1.00;91.70;;;;;;7576666;19;20019;-78
2023/04/04 07:00:45;;;;;;;11.27;5.32;;;1.00;90.90;;;;;;7577405;19;20966;-76
2023/04/04 07:03:17;;;;;;;11.35;5.50;;;1.10;90.50;;;;;;7574919;19;20274;-77
2023/04/04 07:05:49;;;;;;;10.32;5.57;;;1.20;89.90;;;;;;7579355;19;20109;-78
2023/04/04 07:08:21;;;;;;;9.98;5.65;;;1.30;89.10;;;;;;7585661;19;20048;-78
2023/04/04 07:10:57;;;;;;;11.95;6.03;;;1.40;88.10;;;;;;7585035;19;20013;-78
2023/04/04 07:13:29;;;;;;;11.77;5.57;;;1.50;86.60;;;;;;7538215;19;20027;-79
2023/04/04 07:16:02;;;;;;;12.63;6.00;;;1.70;84.70;;;;;;7564153;19;20856;-76
2023/04/04 07:18:34;;;;;;;14.60;6.45;;;1.80;84.10;;;;;;7552709;19;20046;-78
2023/04/04 07:21:07;;;;;;;10.20;5.50;;;1.80;83.70;;;;;;7575800;19;20018;-79
2023/04/04 07:23:39;;;;;;;12.67;6.10;;;1.90;82.10;;;;;;7581274;19;20022;-76
2023/04/04 07:26:11;;;;;;;12.32;6.03;;;2.00;81.20;;;;;;7581976;19;20030;-75
2023/04/04 07:28:43;;;;;;;9.50;5.90;;;2.10;79.50;;;;;;7582445;19;20738;-79
2023/04/04 07:31:15;;;;;;;9.30;6.20;;;2.10;77.90;;;;;;7581559;19;20041;-76
2023/04/04 07:33:48;;;;;;;12.45;5.88;;;2.10;78.30;;;;;;7580496;19;20019;-76
2023/04/04 07:36:20;;;;;;;7.45;5.10;;;2.10;77.20;;;;;;7590461;19;20019;-78
2023/04/04 07:38:53;;;;;;;12.15;5.38;;;2.20;76.10;;;;;;7566354;19;20011;-76
2023/04/04 07:41:25;;;;;;;9.77;6.50;;;2.20;76.10;;;;;;7585092;19;20022;-75
2023/04/04 07:43:57;;;;;;;10.38;5.95;;;2.30;74.70;;;;;;7583623;19;20014;-79
2023/04/04 07:46:29;;;;;;;8.45;5.07;;;2.40;75.70;;;;;;7594330;19;20019;-78
2023/04/04 07:49:01;;;;;;;10.18;5.65;;;2.50;73.70;;;;;;7591892;19;21160;-77
2023/04/04 07:51:34;;;;;;;9.25;5.47;;;2.40;72.10;;;;;;7588328;19;20598;-77
2023/04/04 07:54:07;;;;;;;12.45;6.13;;;2.50;71.30;;;;;;7598158;19;20014;-78
2023/04/04 07:56:39;;;;;;;9.50;5.82;;;2.40;71.20;;;;;;7605453;19;20015;-79
2023/04/04 07:59:12;;;;;;;8.77;5.32;;;2.20;72.70;;;;;;7612080;19;20586;-78
2023/04/04 08:01:44;;;;;;;7.60;5.93;;;2.30;71.90;;;;;;7595428;19;20022;-78
2023/04/04 08:04:17;;;;;;;14.05;6.43;;;2.20;71.60;;;;;;7586298;19;20643;-78
2023/04/04 08:06:50;;;;;;;9.10;5.90;;;2.30;72.10;;;;;;7589797;19;20029;-77
2023/04/04 08:09:22;;;;;;;13.07;5.82;;;2.40;72.10;;;;;;7593067;19;20035;-77
2023/04/04 08:11:55;;;;;;;9.27;6.03;;;2.60;73.80;;;;;;7579053;19;20010;-77
2023/04/04 08:14:27;;;;;;;15.57;5.47;;;2.80;71.40;;;;;;7592760;19;20010;-77
2023/04/04 08:17:00;;;;;;;7.87;5.47;;;2.80;68.90;;;;;;7590033;19;20676;-77
2023/04/04 08:19:32;;;;;;;8.65;5.65;;;2.90;69.40;;;;;;7596875;19;20026;-77
2023/04/04 08:22:04;;;;;;;7.57;5.57;;;3.00;68.70;;;;;;7592718;19;20015;-76
2023/04/04 08:24:37;;;;;;;9.13;5.47;;;3.00;67.60;;;;;;7599954;19;20007;-77
2023/04/04 08:27:09;;;;;;;9.27;5.72;;;3.00;66.60;;;;;;7597267;19;21101;-77
2023/04/04 08:29:42;;;;;;;8.77;5.65;;;2.70;64.50;;;;;;7592448;19;20744;-76
2023/04/04 08:32:15;;;;;;;7.75;5.30;;;2.70;65.20;;;;;;7588104;19;20488;-77
2023/04/04 08:34:47;;;;;;;10.95;5.03;;;2.50;63.50;;;;;;7604743;19;20015;-77
2023/04/04 08:37:20;;;;;;;5.88;3.95;;;2.60;65.40;;;;;;7593889;19;20034;-78
2023/04/04 08:39:52;;;;;;;9.18;5.70;;;2.60;66.30;;;;;;7574602;19;20014;-77
2023/04/04 08:42:28;;;;;;;8.82;5.88;;;2.40;66.30;;;;;;7595264;19;20022;-78
2023/04/04 08:45:03;;;;;;;7.47;4.97;;;2.50;65.10;;;;;;7607696;19;20032;-78
2023/04/04 08:47:37;;;;;;;10.52;5.40;;;2.50;65.30;;;;;;7606381;19;20086;-78
2023/04/04 08:50:10;;;;;;;9.23;5.65;;;2.60;66.60;;;;;;7578843;19;20072;-77
2023/04/04 08:52:44;;;;;;;9.65;4.93;;;2.70;66.20;;;;;;7586773;19;21303;-77
2023/04/04 08:55:16;;;;;;;10.57;5.68;;;2.90;66.00;;;;;;7577489;19;20026;-78
2023/04/04 08:57:48;;;;;;;11.82;5.30;;;3.10;65.70;;;;;;7585809;19;20055;-78
2023/04/04 09:00:21;;;;;;;9.95;5.43;;;2.90;63.90;;;;;;7592656;19;20018;-78
2023/04/04 09:03:09;;;;;;;8.88;5.32;;;2.80;64.70;;;;;;7587842;19;20842;-77
2023/04/04 09:05:43;;;;;;;10.77;5.50;;;2.80;65.40;;;;;;7573403;19;20014;-77
2023/04/04 09:08:17;;;;;;;9.70;5.43;;;2.80;65.70;;;;;;7591598;19;20097;-77
2023/04/04 09:10:50;;;;;;;11.27;5.63;;;2.70;64.10;;;;;;7599030;19;20017;-77
2023/04/04 09:13:22;;;;;;;8.60;5.88;;;2.70;65.50;;;;;;7587337;19;20011;-79
2023/04/04 09:15:57;;;;;;;7.53;5.38;;;2.70;65.30;;;;;;7572755;19;20014;-79
2023/04/04 09:18:29;;;;;;;10.18;5.28;;;2.80;65.40;;;;;;7577739;19;20013;-79
2023/04/04 09:21:08;;;;;;;8.00;5.35;;;2.90;65.40;;;;;;7596352;19;20013;-79
2023/04/04 09:23:43;;;;;;;8.20;5.22;;;3.00;66.40;;;;;;7606949;19;20018;-78
2023/04/04 09:26:15;;;;;;;7.63;5.07;;;3.10;65.30;;;;;;7600014;19;20017;-77
2023/04/04 09:28:51;;;;;;;10.15;5.55;;;3.10;64.60;;;;;;7598502;19;20027;-78
2023/04/04 09:31:24;;;;;;;7.22;5.05;;;3.20;64.00;;;;;;7596541;19;20006;-79
2023/04/04 09:33:57;;;;;;;10.18;5.13;;;3.20;64.00;;;;;;7598137;19;20013;-79
2023/04/04 09:36:30;;;;;;;9.35;5.63;;;3.30;64.10;;;;;;7600579;19;20018;-77
2023/04/04 09:39:03;;;;;;;7.97;5.40;;;3.30;63.10;;;;;;7599840;19;20003;-76
2023/04/04 09:41:40;;;;;;;9.13;5.47;;;3.30;61.20;;;;;;7604071;19;20014;-77
2023/04/04 09:44:12;;;;;;;8.80;5.20;;;3.40;61.10;;;;;;7603892;19;20026;-76
2023/04/04 09:46:50;;;;;;;9.07;5.67;;;3.30;60.20;;;;;;7604084;19;20025;-76
2023/04/04 09:49:23;;;;;;;9.82;5.72;;;3.30;61.10;;;;;;7605240;19;20006;-76
2023/04/04 09:51:55;;;;;;;8.00;5.28;;;3.30;61.50;;;;;;7602708;19;20021;-76
2023/04/04 09:54:29;;;;;;;8.55;5.55;;;3.30;60.90;;;;;;7613139;19;20019;-77
2023/04/04 09:57:02;;;;;;;10.80;5.28;;;3.20;61.00;;;;;;7607858;19;20046;-77
2023/04/04 09:59:35;;;;;;;11.38;5.97;;;3.20;60.50;;;;;;7610904;19;20039;-77
2023/04/04 10:02:09;;;;;;;8.03;5.37;;;3.30;60.60;;;;;;7618723;19;21014;-76
2023/04/04 10:04:42;;;;;;;11.00;5.18;;;3.30;60.00;;;;;;7609030;19;20032;-77
2023/04/04 10:07:17;;;;;;;11.57;5.85;;;3.40;60.20;;;;;;7599917;19;20018;-78
2023/04/04 10:09:51;;;;;;;7.78;5.00;;;3.50;60.70;;;;;;7612314;19;20062;-76
2023/04/04 10:12:24;;;;;;;8.00;5.40;;;3.50;59.20;;;;;;7613775;19;20557;-77
2023/04/04 10:14:58;;;;;;;7.15;5.15;;;3.50;60.20;;;;;;7623898;19;20247;-78
2023/04/04 10:17:38;;;;;;;9.75;5.97;;;3.50;60.30;;;;;;7618544;19;20018;-78
2023/04/04 10:20:11;;;;;;;5.95;4.80;;;3.40;60.10;;;;;;7623648;19;20015;-77
2023/04/04 10:22:45;;;;;;;9.35;5.72;;;3.50;59.30;;;;;;7620945;19;20015;-76
2023/04/04 10:25:18;;;;;;;9.98;5.82;;;3.70;61.40;;;;;;7617742;19;20479;-77
2023/04/04 10:27:50;;;;;;;7.25;5.55;;;3.80;60.70;;;;;;7612827;19;20029;-79
2023/04/04 10:30:22;;;;;;;9.52;5.82;;;3.80;61.10;;;;;;7618539;19;20025;-78
2023/04/04 10:33:06;;;;;;;11.68;6.10;;;3.80;62.00;;;;;;7621854;19;20046;-78
2023/04/04 10:35:42;;;;;;;9.85;5.18;;;4.00;61.60;;;;;;7623024;19;20051;-78
2023/04/04 10:38:19;;;;;;;8.75;5.70;;;4.20;60.70;;;;;;7618655;19;20014;-78
2023/04/04 10:40:55;;;;;;;9.65;6.13;;;4.20;59.70;;;;;;7619779;19;20019;-76
2023/04/04 10:43:31;;;;;;;8.52;5.88;;;4.10;59.50;;;;;;7601688;19;20015;-78
2023/04/04 10:46:20;;;;;;;9.18;5.63;;;4.10;59.30;;;;;;7611073;19;20022;-77
2023/04/04 10:48:59;;;;;;;8.77;5.38;;;4.20;61.30;;;;;;7632350;19;20018;-76
2023/04/04 10:51:31;;;;;;;8.80;5.57;;;4.30;58.80;;;;;;7618147;19;20018;-78
2023/04/04 10:54:13;;;;;;;10.25;6.20;;;4.30;58.90;;;;;;7636148;19;20015;-77
2023/04/04 10:56:48;;;;;;;9.35;6.25;;;4.20;60.10;;;;;;7632575;19;21026;-76
2023/04/04 10:59:24;;;;;;;13.27;6.18;;;4.40;59.50;;;;;;7624556;19;20010;-77
2023/04/04 11:01:58;;;;;;;8.27;6.03;;;4.40;60.00;;;;;;7627265;19;20018;-79
2023/04/04 11:04:37;;;;;;;8.48;5.95;;;4.30;58.90;;;;;;7626092;19;20027;-76
2023/04/04 11:07:19;;;;;;;12.05;6.43;;;4.40;59.20;;;;;;7629084;19;20121;-76
2023/04/04 11:09:54;;;;;;;11.23;5.90;;;4.60;57.90;;;;;;7626260;19;20018;-76
2023/04/04 11:12:35;;;;;;;11.95;5.80;;;4.80;60.60;;;;;;7629240;19;20029;-78
2023/04/04 11:15:09;;;;;;;8.95;6.07;;;5.00;58.10;;;;;;7627128;19;20726;-78
2023/04/04 11:17:47;;;;;;;7.53;6.00;;;5.20;57.80;;;;;;7626770;19;20018;-78
2023/04/04 11:20:22;;;;;;;13.45;6.10;;;5.50;59.60;;;;;;7626102;19;20011;-78
2023/04/04 11:23:09;;;;;;;8.77;5.93;;;5.90;57.80;;;;;;7622973;19;20089;-76
2023/04/04 11:26:09;;;;;;;10.27;6.32;;;6.10;57.00;;;;;;7618285;19;20022;-77
2023/04/04 11:28:43;;;;;;;10.02;5.97;;;5.90;57.10;;;;;;7607767;19;20043;-77
2023/04/04 11:31:19;;;;;;;7.65;6.25;;;6.00;55.80;;;;;;7625923;19;20372;-76
2023/04/04 11:34:07;;;;;;;10.57;5.95;;;6.20;55.20;;;;;;7630795;19;20103;-76
2023/04/04 11:36:41;;;;;;;11.10;6.00;;;6.40;56.90;;;;;;7616888;19;20025;-76
2023/04/04 11:39:30;;;;;;;10.32;5.90;;;6.50;55.10;;;;;;7627238;19;21837;-77
2023/04/04 11:42:12;;;;;;;10.85;6.28;;;6.60;55.70;;;;;;7618673;19;20025;-76
2023/04/04 11:44:48;;;;;;;9.73;6.30;;;7.10;55.20;;;;;;7627157;19;20018;-77
2023/04/04 11:47:25;;;;;;;8.60;5.82;;;7.00;52.60;;;;;;7620593;19;20749;-78
2023/04/04 11:50:00;;;;;;;11.80;6.07;;;6.70;53.40;;;;;;7618419;19;20014;-77
2023/04/04 11:52:37;;;;;;;9.07;5.97;;;6.90;55.40;;;;;;7641338;19;20043;-77
2023/04/04 11:55:18;;;;;;;11.20;6.70;;;6.80;52.80;;;;;;7618457;19;20030;-78
2023/04/04 11:57:51;;;;;;;8.30;5.82;;;7.20;53.00;;;;;;7631073;19;20018;-77
2023/04/04 12:00:31;;;;;;;10.93;6.07;;;7.50;52.10;;;;;;7623649;19;20041;-76
2023/04/04 12:03:05;;;;;;;9.82;6.13;;;7.50;53.10;;;;;;7630519;19;20354;-77
2023/04/04 12:05:41;;;;;;;10.63;6.00;;;7.10;51.40;;;;;;7631536;19;20546;-78
2023/04/04 12:08:16;;;;;;;7.72;5.70;;;6.70;52.00;;;;;;7629406;19;20537;-78
2023/04/04 12:10:50;;;;;;;8.50;6.43;;;6.80;52.70;;;;;;7629861;19;20055;-76
2023/04/04 12:13:28;;;;;;;;;;;7.00;52.70;;;;;;7624099;19;20008;-76
2023/04/04 12:16:06;;;;;;;8.13;4.97;;;7.40;55.30;;;;;;7633210;19;19953;-77
2023/04/04 12:18:44;;;;;;;8.48;5.50;;;7.60;50.20;;;;;;7615619;19;20050;-78
2023/04/04 12:21:17;;;;;;;7.28;5.40;;;7.70;48.80;;;;;;7623493;19;20109;-76
2023/04/04 12:23:55;;;;;;;10.32;6.05;;;8.10;48.30;;;;;;7620469;19;20025;-75
2023/04/04 12:26:28;;;;;;;8.70;5.63;;;8.50;50.10;;;;;;7619441;19;20030;-75
2023/04/04 12:29:01;;;;;;;;;;;8.50;49.10;;;;;;7621012;19;20053;-76
2023/04/04 12:31:33;;;;;;;9.00;5.75;;;8.40;50.00;;;;;;7623148;19;19935;-76
2023/04/04 12:34:07;;;;;;;12.77;6.15;;;8.10;49.90;;;;;;7599780;19;20015;-79
2023/04/04 12:36:40;;;;;;;8.38;5.38;;;8.00;50.70;;;;;;7608298;19;20922;-78
2023/04/04 12:39:15;;;;;;;7.00;5.43;;;7.80;49.80;;;;;;7621864;19;20625;-77
2023/04/04 12:42:01;;;;;;;8.40;6.28;;;8.00;51.20;;;;;;7624249;19;20102;-79
2023/04/04 12:44:35;;;;;;;8.15;5.72;;;7.90;50.80;;;;;;7631058;19;20010;-78
2023/04/04 12:47:14;;;;;;;9.43;5.85;;;7.50;49.90;;;;;;7617579;19;20043;-79
2023/04/04 12:49:47;;;;;;;6.90;5.50;;;7.10;50.70;;;;;;7634185;19;20026;-77
2023/04/04 12:52:31;;;;;;;11.55;6.18;;;7.40;51.50;;;;;;7619924;19;20023;-76
2023/04/04 12:55:08;;;;;;;10.18;6.07;;;8.10;51.90;;;;;;7626624;19;20006;-77
2023/04/04 12:57:41;;;;;;;7.03;5.18;;;8.90;49.60;;;;;;7620567;19;20021;-76
2023/04/04 13:00:15;;;;;;;8.32;5.22;;;8.70;47.80;;;;;;7639718;19;20021;-75
2023/04/04 13:02:49;;;;;;;7.57;5.38;;;8.60;49.10;;;;;;7608510;19;20014;-76
2023/04/04 13:05:24;;;;;;;8.05;4.93;;;8.40;49.70;;;;;;7607143;19;20023;-76
2023/04/04 13:08:10;;;;;;;9.65;5.28;;;8.90;50.70;;;;;;7619428;19;20967;-76
2023/04/04 13:11:04;;;;;;;10.48;5.80;;;9.10;48.40;;;;;;7614612;19;20519;-78
2023/04/04 13:13:42;;;;;;;8.70;5.60;;;8.50;48.00;;;;;;7615367;19;20003;-78
2023/04/04 13:16:35;;;;;;;7.57;5.72;;;7.80;48.90;;;;;;7613120;19;20019;-77
2023/04/04 13:19:08;;;;;;;10.40;5.78;;;7.20;50.90;;;;;;7618862;19;20015;-76
2023/04/04 13:21:40;;;;;;;9.40;6.38;;;6.70;52.40;;;;;;7626443;19;20040;-77
2023/04/04 13:24:26;;;;;;;8.38;5.93;;;6.90;52.00;;;;;;7625604;19;20067;-77
2023/04/04 13:26:59;;;;;;;9.15;6.18;;;7.70;52.50;;;;;;7622313;19;20011;-77
2023/04/04 13:29:32;;;;;;;9.30;5.50;;;8.60;49.80;;;;;;7622962;19;20013;-77